Flight Track Log - Related Links

Times and Time Zones

All times are in EDT time to prevent confusion due to time zone crossing. See the WJA1790 flight status page for this flight to view local times or setup timezone preferences in your user account.

Time Position Orientation Groundspeed Altitude Reporting Facility
EDT Latitude Longitude Course Direction KTS MPH feet Rate Location/Type
Thu 09:48:23 PM 49.1870 -123.1840 281° West 152 175  Level FlightAware ADS-B
Thu 09:48:48 PM 49.1910 -123.2120 282° West 170 196 600 1,680 Climbing FlightAware ADS-B
Thu 09:49:13 PM 49.1940 -123.2410 279° West 186 214 1,400 2,073 Climbing FlightAware ADS-B
Thu 09:49:43 PM 49.1930 -123.2850 268° West 210 242 2,500 2,400 Climbing FlightAware ADS-B
Thu 09:49:58 PM 49.1920 -123.3070 266° West 215 247 3,200 1,950 Climbing FlightAware ADS-B
Thu 09:50:23 PM 49.1880 -123.3470 261° West 256 295 3,800 2,040 Climbing FlightAware ADS-B
Thu 09:50:48 PM 49.1660 -123.3790 224° Southwest 271 312 4,900 2,743 Climbing FlightAware ADS-B
Thu 09:50:58 PM 49.1540 -123.3840 195° South 274 315 5,400 3,000 Climbing FlightAware ADS-B
Thu 09:51:28 PM 49.1160 -123.3700 166° South 287 330 6,900 3,000 Climbing FlightAware ADS-B
Thu 09:51:46 PM 49.0930 -123.3560 158° South 291 335 7,800 3,136 Climbing FlightAware ADS-B
Thu 09:52:12 PM 49.0610 -123.3350 157° South 292 336 9,200 2,522 Climbing FlightAware ADS-B
Thu 09:52:55 PM 49.0070 -123.3000 157° South 327 376 10,700 2,341 Climbing FlightAware ADS-B
Thu 09:53:34 PM 48.9480 -123.2620 157° South 352 405 12,400 2,889 Climbing FlightAware ADS-B
Thu 09:54:16 PM 48.8840 -123.2200 157° South 367 422 14,600 3,103 Climbing FlightAware ADS-B
Thu 09:55:01 PM 48.8130 -123.1740 157° South 381 438 16,900 3,237 Climbing FlightAware ADS-B
Thu 09:55:32 PM 48.7630 -123.1410 156° South 379 436 18,700 3,039 Climbing FlightAware ADS-B
Thu 09:56:18 PM 48.6860 -123.0920 157° South 393 452 20,800 2,721 Climbing FlightAware ADS-B
Thu 09:56:58 PM 48.6180 -123.0490 157° South 404 465 22,600 2,634 Climbing FlightAware ADS-B
Thu 09:57:40 PM 48.5460 -123.0020 157° South 412 474 24,400 2,372 Climbing FlightAware ADS-B
Thu 09:58:24 PM 48.4660 -122.9520 157° South 424 488 26,000 2,000 Climbing FlightAware ADS-B
Thu 09:59:04 PM 48.3960 -122.9070 157° South 437 503 27,200 1,857 Climbing FlightAware ADS-B
Thu 09:59:48 PM 48.3130 -122.8540 157° South 446 513 28,600 1,875 Climbing FlightAware ADS-B
Thu 10:00:24 PM 48.2420 -122.8100 158° South 454 522 29,700 1,622 Climbing FlightAware ADS-B
Thu 10:01:02 PM 48.1680 -122.7630 157° South 464 534 30,600 1,650 Climbing FlightAware ADS-B
Thu 10:01:44 PM 48.0840 -122.7100 157° South 467 537 31,900 1,891 Climbing FlightAware ADS-B
Thu 10:02:34 PM 47.9850 -122.6480 157° South 463 533 33,500 1,888 Climbing FlightAware ADS-B
Thu 10:03:13 PM 47.9070 -122.6140 164° South 446 513 34,700 1,870 Climbing FlightAware ADS-B
Thu 10:03:51 PM 47.8330 -122.6280 187° South 433 498 35,900 1,533 Climbing FlightAware ADS-B
Thu 10:04:43 PM 47.7280 -122.6480 187° South 428 493 37,000 717 Climbing FlightAware ADS-B
Thu 10:05:23 PM 47.6490 -122.6620 187° South 426 490 37,000  Level FlightAware ADS-B
Thu 10:06:06 PM 47.5660 -122.6770 187° South 425 489 37,000  Level FlightAware ADS-B
Thu 10:06:46 PM 47.4900 -122.6920 188° South 424 488 37,000  Level FlightAware ADS-B
Thu 10:07:24 PM 47.4150 -122.7040 186° South 425 489 37,000  Level FlightAware ADS-B
Thu 10:07:44 PM 47.3830 -122.6960 170° South 437 503 37,000 300 Level FlightAware ADS-B
Thu 10:08:24 PM 47.3060 -122.6180 146° Southeast 469 540 37,300 643 Climbing FlightAware ADS-B
Thu 10:09:08 PM 47.2290 -122.5280 142° Southeast 475 547 37,900 1,116 Climbing FlightAware ADS-B
Thu 10:09:50 PM 47.1600 -122.4480 142° Southeast 469 540 38,900 805 Climbing FlightAware ADS-B
Thu 10:10:30 PM 47.0900 -122.3680 142° Southeast 468 539 39,000 71 Climbing FlightAware ADS-B
Thu 10:11:14 PM 47.0180 -122.2860 142° Southeast 468 539 39,000  Level FlightAware ADS-B
Thu 10:11:56 PM 46.9440 -122.2010 142° Southeast 467 537 39,000  Level FlightAware ADS-B
Thu 10:12:37 PM 46.8750 -122.1220 142° Southeast 466 536 39,000  Level FlightAware ADS-B
Thu 10:13:17 PM 46.8120 -122.0510 142° Southeast 464 534 39,000  Level FlightAware ADS-B
Thu 10:14:01 PM 46.7380 -121.9670 142° Southeast 463 533 39,000  Level FlightAware ADS-B
Thu 10:14:45 PM 46.6610 -121.8800 142° Southeast 462 532 39,000  Level FlightAware ADS-B
Thu 10:15:26 PM 46.5880 -121.7980 142° Southeast 462 532 39,000  Level FlightAware ADS-B
Thu 10:16:04 PM 46.5240 -121.7250 142° Southeast 461 531 39,000  Level FlightAware ADS-B
Thu 10:16:50 PM 46.4490 -121.6410 142° Southeast 458 527 39,000  Level FlightAware ADS-B
Thu 10:17:29 PM 46.3830 -121.5680 143° Southeast 457 526 39,000  Level FlightAware ADS-B
Thu 10:18:12 PM 46.3100 -121.4870 143° Southeast 457 526 39,000  Level FlightAware ADS-B
Thu 10:18:56 PM 46.2360 -121.4040 142° Southeast 457 526 39,000  Level FlightAware ADS-B
Thu 10:19:36 PM 46.1700 -121.3310 143° Southeast 455 524 39,000  Level FlightAware ADS-B
Thu 10:20:18 PM 46.0990 -121.2540 143° Southeast 455 524 39,000  Level FlightAware ADS-B
Thu 10:21:02 PM 46.0260 -121.1740 143° Southeast 455 524 39,000  Level FlightAware ADS-B
Thu 10:21:42 PM 45.9590 -121.1010 143° Southeast 456 525 39,000  Level FlightAware ADS-B
Thu 10:22:26 PM 45.8850 -121.0210 143° Southeast 457 526 39,000  Level FlightAware ADS-B
Thu 10:23:06 PM 45.8190 -120.9480 142° Southeast 458 527 39,000  Level FlightAware ADS-B
Thu 10:23:50 PM 45.7430 -120.8660 143° Southeast 460 529 39,000  Level FlightAware ADS-B
Thu 10:24:28 PM 45.6790 -120.7980 143° Southeast 461 531 39,000  Level FlightAware ADS-B
Thu 10:25:10 PM 45.6070 -120.7200 143° Southeast 461 531 39,000  Level FlightAware ADS-B
Thu 10:25:48 PM 45.5420 -120.6490 143° Southeast 459 528 39,000  Level FlightAware ADS-B
Thu 10:26:28 PM 45.4710 -120.5870 149° Southeast 450 518 39,000  Level FlightAware ADS-B
Thu 10:27:12 PM 45.3910 -120.5260 152° Southeast 446 513 39,000  Level FlightAware ADS-B
Thu 10:27:52 PM 45.3190 -120.4720 152° Southeast 447 514 39,000  Level FlightAware ADS-B
Thu 10:28:36 PM 45.2380 -120.4120 152° Southeast 447 514 39,000  Level FlightAware ADS-B
Thu 10:29:16 PM 45.1650 -120.3580 152° Southeast 449 517 39,000  Level FlightAware ADS-B
Thu 10:30:02 PM 45.0810 -120.2950 152° Southeast 450 518 39,000  Level FlightAware ADS-B
Thu 10:30:33 PM 45.0230 -120.2520 152° Southeast 448 516 39,000  Level FlightAware ADS-B
Thu 10:31:19 PM 44.9390 -120.1900 152° Southeast 445 512 39,000  Level FlightAware ADS-B
Thu 10:31:59 PM 44.8650 -120.1360 153° Southeast 444 511 39,000  Level FlightAware ADS-B
Thu 10:32:35 PM 44.8000 -120.0890 153° Southeast 445 512 39,000  Level FlightAware ADS-B
Thu 10:33:15 PM 44.7310 -120.0380 152° Southeast 446 513 39,000  Level FlightAware ADS-B
Thu 10:33:59 PM 44.6460 -119.9760 153° Southeast 444 511 39,000  Level FlightAware ADS-B
Thu 10:34:39 PM 44.5740 -119.9240 153° Southeast 443 510 39,000  Level FlightAware ADS-B
Thu 10:35:23 PM 44.4930 -119.8650 153° Southeast 442 509 39,000  Level FlightAware ADS-B
Thu 10:36:05 PM 44.4190 -119.8110 152° Southeast 441 507 39,000  Level FlightAware ADS-B
Thu 10:36:47 PM 44.3420 -119.7570 153° Southeast 445 512 39,000  Level FlightAware ADS-B
Thu 10:37:23 PM 44.2760 -119.7090 152° Southeast 448 516 39,000  Level FlightAware ADS-B
Thu 10:38:03 PM 44.2030 -119.6560 153° Southeast 448 516 39,000  Level FlightAware ADS-B
Thu 10:38:43 PM 44.1290 -119.5990 151° Southeast 457 526 39,000  Level FlightAware ADS-B
Thu 10:39:23 PM 44.0630 -119.5250 141° Southeast 463 533 39,000  Level FlightAware ADS-B
Thu 10:40:09 PM 43.9870 -119.4390 141° Southeast 461 531 39,000  Level FlightAware ADS-B
Thu 10:40:51 PM 43.9190 -119.3590 140° Southeast 463 533 39,000  Level FlightAware ADS-B
Thu 10:41:31 PM 43.8520 -119.2830 141° Southeast 461 531 39,000  Level FlightAware ADS-B
Thu 10:42:17 PM 43.7760 -119.1960 140° Southeast 457 526 39,000  Level FlightAware ADS-B
Thu 10:42:47 PM 43.7290 -119.1440 141° Southeast 456 525 39,000  Level FlightAware ADS-B
Thu 10:43:33 PM 43.6520 -119.0560 140° Southeast 453 521 39,000  Level FlightAware ADS-B
Thu 10:44:09 PM 43.5960 -118.9930 141° Southeast 453 521 39,000  Level FlightAware ADS-B
Thu 10:44:51 PM 43.5280 -118.9150 140° Southeast 454 522 39,000  Level FlightAware ADS-B
Thu 10:45:31 PM 43.4620 -118.8410 141° Southeast 454 522 39,000  Level FlightAware ADS-B
Thu 10:46:11 PM 43.3980 -118.7690 141° Southeast 454 522 39,000  Level FlightAware ADS-B
Thu 10:46:49 PM 43.3340 -118.6990 141° Southeast 455 524 39,000  Level FlightAware ADS-B
Thu 10:47:29 PM 43.2700 -118.6270 141° Southeast 458 527 39,000  Level FlightAware ADS-B
Thu 10:48:13 PM 43.1960 -118.5450 141° Southeast 461 531 39,000  Level FlightAware ADS-B
Thu 10:48:53 PM 43.1300 -118.4720 141° Southeast 464 534 39,000  Level FlightAware ADS-B
Thu 10:49:37 PM 43.0570 -118.3910 141° Southeast 462 532 39,000  Level FlightAware ADS-B
Thu 10:50:17 PM 42.9910 -118.3180 141° Southeast 464 534 39,000  Level FlightAware ADS-B
Thu 10:51:01 PM 42.9180 -118.2390 142° Southeast 464 534 39,000  Level FlightAware ADS-B
Thu 10:51:33 PM 42.8630 -118.1780 141° Southeast 465 535 39,000  Level FlightAware ADS-B
Thu 10:52:17 PM 42.7890 -118.0980 142° Southeast 463 533 39,000  Level FlightAware ADS-B
Thu 10:53:01 PM 42.7170 -118.0180 141° Southeast 463 533 39,000  Level FlightAware ADS-B
Thu 10:53:41 PM 42.6490 -117.9450 142° Southeast 462 532 39,000  Level FlightAware ADS-B
Thu 10:54:21 PM 42.5820 -117.8730 142° Southeast 463 533 39,000  Level FlightAware ADS-B
Thu 10:55:03 PM 42.5120 -117.7960 141° Southeast 466 536 39,000  Level FlightAware ADS-B
Thu 10:55:47 PM 42.4390 -117.7190 142° Southeast 463 533 39,000  Level FlightAware ADS-B
Thu 10:56:22 PM 42.3800 -117.6550 141° Southeast 463 533 39,000  Level FlightAware ADS-B
Thu 10:57:05 PM 42.3070 -117.5780 142° Southeast 463 533 39,000  Level FlightAware ADS-B
Thu 10:57:45 PM 42.2400 -117.5050 141° Southeast 464 534 39,000  Level FlightAware ADS-B
Thu 10:58:26 PM 42.1720 -117.4330 142° Southeast 463 533 39,000  Level FlightAware ADS-B
Thu 10:59:11 PM 42.0950 -117.3520 142° Southeast 464 534 39,000  Level FlightAware ADS-B
Thu 10:59:49 PM 42.0320 -117.2850 142° Southeast 466 536 39,000  Level FlightAware ADS-B
Thu 11:00:33 PM 41.9570 -117.2060 142° Southeast 467 537 39,000  Level FlightAware ADS-B
Thu 11:01:15 PM 41.8850 -117.1300 142° Southeast 467 537 39,000  Level FlightAware ADS-B
Thu 11:01:59 PM 41.8120 -117.0530 142° Southeast 466 536 39,000  Level FlightAware ADS-B
Thu 11:02:39 PM 41.7420 -116.9810 142° Southeast 465 535 39,000  Level FlightAware ADS-B
Thu 11:03:19 PM 41.6750 -116.9110 142° Southeast 463 533 39,000  Level FlightAware ADS-B
Thu 11:04:04 PM 41.6000 -116.8320 142° Southeast 462 532 39,000  Level FlightAware ADS-B
Thu 11:04:47 PM 41.5260 -116.7560 142° Southeast 461 531 39,000  Level FlightAware ADS-B
Thu 11:05:25 PM 41.4720 -116.6990 142° Southeast 461 531 39,000  Level FlightAware ADS-B
Thu 11:06:03 PM 41.3980 -116.6240 143° Southeast 462 532 39,000  Level FlightAware ADS-B
Thu 11:07:01 PM 41.3140 -116.5340 141° Southeast 463 533 39,000  Level FlightAware ADS-B
Thu 11:07:37 PM 41.2630 -116.4790 141° Southeast 463 533 39,000  Level FlightAware ADS-B
Thu 11:08:14 PM 41.2100 -116.4230 142° Southeast 463 533 39,000  Level FlightAware ADS-B
Thu 11:09:02 PM 41.1420 -116.3500 141° Southeast 463 533 39,000  Level FlightAware ADS-B
Thu 11:09:38 PM 41.0910 -116.2950 141° Southeast 463 533 39,000  Level FlightAware ADS-B
Thu 11:10:38 PM 41.0070 -116.2040 141° Southeast 463 533 39,000  Level FlightAware ADS-B
Thu 11:11:14 PM 40.9560 -116.1490 141° Southeast 463 533 39,000  Level FlightAware ADS-B
Thu 11:12:04 PM 40.8850 -116.0740 141° Southeast 463 533 39,000  Level FlightAware ADS-B
Thu 11:12:52 PM 40.8170 -116.0010 141° Southeast 463 533 39,000  Level FlightAware ADS-B
Thu 11:13:28 PM 40.7660 -115.9460 141° Southeast 463 533 39,000  Level FlightAware ADS-B
Thu 11:14:17 PM 40.6970 -115.8720 141° Southeast 463 533 39,000  Level FlightAware ADS-B
Thu 11:14:42 PM 40.6610 -115.8350 142° Southeast 463 533 39,000  Level FlightAware ADS-B
Thu 11:15:30 PM 40.5930 -115.7620 141° Southeast 463 533 39,000  Level FlightAware ADS-B
Thu 11:16:06 PM 40.5420 -115.7080 141° Southeast 463 533 39,000  Level FlightAware ADS-B
Thu 11:17:19 PM 40.2581 -115.4722 141° Southeast 467 537 39,000  Level Salt Lake Center
Thu 11:18:20 PM 40.1586 -115.3758 143° Southeast 466 536 39,000  Level Salt Lake Center
Thu 11:19:22 PM 40.0433 -115.2625 143° Southeast 463 533 39,000  Level Salt Lake Center
Thu 11:20:23 PM 39.9442 -115.1678 144° Southeast 461 531 39,000 -390 Level Salt Lake Center
Thu 11:21:25 PM 39.8322 -115.0572 143° Southeast 453 521 38,200 -1,024 Descending Salt Lake Center
Thu 11:22:26 PM 39.7342 -114.9625 143° Southeast 457 526 36,900 -1,328 Descending Salt Lake Center
Thu 11:23:27 PM 39.6336 -114.8664 144° Southeast 465 535 35,500 -927 Descending Salt Lake Center
Thu 11:24:29 PM 39.5150 -114.7517 143° Southeast 474 545 35,000 -244 Descending Salt Lake Center
Thu 11:25:30 PM 39.4206 -114.6433 138° Southeast 475 547 35,000  Level Salt Lake Center
Thu 11:26:32 PM 39.3253 -114.4911 129° Southeast 484 557 35,000  Level Salt Lake Center
Thu 11:27:33 PM 39.2383 -114.3525 129° Southeast 485 558 35,000  Level Salt Lake Center
Thu 11:28:34 PM 39.1625 -114.2342 130° Southeast 485 558 35,000  Level Salt Lake Center
Thu 11:29:36 PM 39.0764 -114.1011 130° Southeast 485 558 35,000  Level Salt Lake Center
Thu 11:30:37 PM 38.9733 -113.9394 129° Southeast 487 560 35,000  Level Salt Lake Center
Thu 11:31:39 PM 38.8886 -113.8072 129° Southeast 480 552 35,000  Level Salt Lake Center
Thu 11:32:40 PM 38.8022 -113.6786 131° Southeast 477 549 35,000  Level Salt Lake Center
Thu 11:33:41 PM 38.7172 -113.5483 130° Southeast 476 548 35,000  Level Salt Lake Center
Thu 11:34:43 PM 38.6139 -113.4497 143° Southeast 473 544 35,000  Level Salt Lake Center
Thu 11:35:44 PM 38.4942 -113.4003 162° South 457 526 35,000  Level Salt Lake Center
Thu 11:36:45 PM 38.3750 -113.3517 162° South 452 520 35,000  Level Salt Lake Center
Thu 11:37:47 PM 38.2558 -113.3011 162° South 451 519 35,000  Level Salt Lake Center
Thu 11:38:48 PM 38.1356 -113.2878 175° South 454 522 35,000 -1,475 Level Salt Lake Center
Thu 11:39:49 PM 38.0047 -113.3578 203° Southwest 431 496 32,000 -1,463 Descending Salt Lake Center
Thu 11:40:51 PM 37.8933 -113.4164 203° Southwest 435 501 32,000 -208 Level Salt Lake Center
Thu 11:46:32 PM 37.3000 -113.8420 203° Southwest 412 474 30,600 -407 Descending FlightAware ADS-B
Thu 11:47:14 PM 37.2340 -113.8890 210° Southwest 413 475 29,400 -1,341 Descending FlightAware ADS-B
Thu 11:47:57 PM 37.1590 -113.9430 210° Southwest 426 490 28,700 -1,663 Descending FlightAware ADS-B
Thu 11:48:37 PM 37.0900 -113.9920 210° Southwest 416 479 27,100 -2,286 Descending FlightAware ADS-B
Thu 11:49:21 PM 37.0180 -114.0430 209° Southwest 406 467 25,500 -2,233 Descending FlightAware ADS-B
Thu 11:50:03 PM 36.9500 -114.0910 209° Southwest 393 452 23,900 -2,188 Descending FlightAware ADS-B
Thu 11:50:46 PM 36.8830 -114.1390 210° Southwest 383 441 22,400 -2,096 Descending FlightAware ADS-B
Thu 11:51:26 PM 36.8210 -114.1820 209° Southwest 374 430 21,000 -2,000 Descending FlightAware ADS-B
Thu 11:52:10 PM 36.7580 -114.2270 210° Southwest 378 435 19,600 -2,118 Descending FlightAware ADS-B
Thu 11:52:51 PM 36.6910 -114.2740 209° Southwest 389 448 18,000 -2,188 Descending FlightAware ADS-B
Thu 11:53:35 PM 36.6240 -114.3200 209° Southwest 377 434 16,500 -2,024 Descending FlightAware ADS-B
Thu 11:54:14 PM 36.5690 -114.3590 210° Southwest 370 426 15,200 -2,132 Descending FlightAware ADS-B
Thu 11:54:51 PM 36.5100 -114.4000 209° Southwest 365 420 13,800 -2,182 Descending FlightAware ADS-B
Thu 11:55:31 PM 36.4510 -114.4410 209° Southwest 359 413 12,400 -1,229 Descending FlightAware ADS-B
Thu 11:56:14 PM 36.3910 -114.4810 208° Southwest 319 367 12,100 -225 Descending FlightAware ADS-B
Thu 11:56:51 PM 36.3430 -114.4940 192° South 282 325 12,100 -234 Level FlightAware ADS-B
Thu 11:57:31 PM 36.2940 -114.5070 192° South 259 298 11,800 -706 Descending FlightAware ADS-B
Thu 11:57:59 PM 36.2620 -114.5200 198° South 257 296 11,300 -1,200 Descending FlightAware ADS-B
Thu 11:58:11 PM 36.2510 -114.5320 221° Southwest 257 296 11,000 -1,167 Descending FlightAware ADS-B
Thu 11:58:35 PM 36.2370 -114.5620 240° Southwest 253 291 10,600 -1,048 Descending FlightAware ADS-B
Thu 11:59:14 PM 36.2240 -114.6150 253° West 251 289 9,900 -1,000 Descending FlightAware ADS-B
Thu 11:59:29 PM 36.2180 -114.6370 251° West 251 289 9,700 -977 Descending FlightAware ADS-B
Thu 11:59:57 PM 36.2080 -114.6750 252° West 252 290 9,200 -1,000 Descending FlightAware ADS-B
Fri 12:00:23 AM 36.1980 -114.7100 251° West 249 287 8,800 -964 Descending FlightAware ADS-B
Fri 12:00:53 AM 36.1880 -114.7510 253° West 246 283 8,300 -1,043 Descending FlightAware ADS-B
Fri 12:01:09 AM 36.1820 -114.7720 251° West 245 282 8,000 -1,000 Descending FlightAware ADS-B
Fri 12:01:35 AM 36.1730 -114.8070 252° West 241 277 7,600 -714 Descending FlightAware ADS-B
Fri 12:01:51 AM 36.1670 -114.8270 250° West 235 270 7,500 -143 Descending FlightAware ADS-B
Fri 12:02:17 AM 36.1600 -114.8560 253° West 203 234 7,500 -308 Level FlightAware ADS-B
Fri 12:02:30 AM 36.1550 -114.8710 248° West 193 222 7,300 -1,171 Descending FlightAware ADS-B
Fri 12:02:58 AM 36.1480 -114.9000 253° West 185 213 6,700 -1,053 Descending FlightAware ADS-B
Fri 12:03:27 AM 36.1400 -114.9280 251° West 171 197 6,300 -679 Descending FlightAware ADS-B
Fri 12:03:51 AM 36.1350 -114.9490 254° West 165 190 6,100 -419 Descending FlightAware ADS-B
Fri 12:04:10 AM 36.1330 -114.9660 262° West 162 186 6,000 -1,200 Descending FlightAware ADS-B
Fri 12:04:46 AM 36.1350 -115.0020 274° West 164 189 5,000 -1,406 Descending FlightAware ADS-B
Fri 12:05:14 AM 36.1360 -115.0270 273° West 156 180 4,500 -889 Descending FlightAware ADS-B
Fri 12:05:40 AM 36.1380 -115.0490 276° West 150 173 4,200 -655 Descending FlightAware ADS-B
Fri 12:06:09 AM 36.1390 -115.0730 273° West 149 171 3,900 -740 Descending FlightAware ADS-B
Fri 12:06:53 AM 36.1350 -115.1090 262° West 139 160 3,300 -750 Descending FlightAware ADS-B
Fri 12:07:21 AM 36.1300 -115.1310 254° West 139 160 3,000 -750 Descending FlightAware ADS-B
Fri 12:07:33 AM 36.1250 -115.1380 229° Southwest 134 154 2,800 -750 Descending FlightAware ADS-B
Fri 12:08:01 AM 36.1100 -115.1470 206° Southwest 130 150 2,500 -643 Descending FlightAware ADS-B
Fri 12:16:00 AM 36.0801 -115.1523 219° Southwest  Level Estimated

Login

Don't have an account? Register now (free) for customized features, flight alerts, and more!